TAF KHOT
KHOT 072331Z 0800/0824 10005KT P6SM OVC035 TEMPO 0800/0804 OVC025 FM080400 06003KT P6SM OVC250 FM081500 11005KT P6SM SKC=
METAR KHOT
WC KHOT
WS KHOT
WV KHOT